Le Roy, New York
Current Conditions -  °F | °C
As of 7:54 AM on Friday 31 Oct 2014 (Local Time) from KROC Reporting Station
Overcast Overcast  
Wind Chill: 42°   Ceiling: 6000
Heat Index: 42°   Visibility: 10mi
Dew Point: 37°   Wind: 3mph
Humidity: 82%   Direction: 230°SW
Pressure: 29.98"   Gusts: NA
Location:  42.98°N, 77.98°W
Report Text: KROC 311154Z 23003KT 10SM SCT048 BKN060 OVC200 06/03 A2998 RMK AO2 SLP159 BINOVC T00560028 10061 20050 57001
Loading
Personal Weather Stations






























Interactive Weather Map
Tropical Storm Tracking
New forecast layout! Learn more

10-Day Weather Forecast

Advertisements
Track Severe Weather on mobile